Terminal Aerodrome Forecast
Issued by NWS Twin Cities, MN

Home | Current Version | Previous Version | Text Only | Print | Product List | Glossary Off
Versions: 1 2 3 4 5 6 7 8 9 10 11 12 13 14 15 16 17

969
FTUS43 KMPX 112331
TAFEAU
TAF
KEAU 112331Z 1200/1224 33013G22KT P6SM OVC030
     FM120300 33012G20KT P6SM SCT030
     FM120700 31008KT P6SM SKC
     FM121400 31006KT P6SM SCT100
     FM122000 25005KT P6SM OVC050=

USA.gov is the U.S. government's official web portal to all federal, state and local government web resources and services.